Chestnut Mound, Tennessee
Current Conditions -  °F | °C
As of 10:15 AM on Wednesday 28 Jan 2015 (Local Time) from KSRB Reporting Station
Clear Clear  
Wind Chill: 32°   Ceiling: Unl
Heat Index: 36°   Visibility: 10mi
Dew Point: 19°   Wind: 5mph
Humidity: 52%   Direction: 80°E
Pressure: 30.32"   Gusts: NA
Location:  36.2°N, 85.83°W
Report Text: KSRB 281615Z AUTO 08004KT 10SM CLR 02/M07 A3032 RMK
Loading
Personal Weather Stations






























Interactive Weather Map New forecast layout! Learn more

10-Day Weather Forecast

Advertisements
Track Severe Weather on mobile